sensor_id;sensor_type;location;lat;lon;timestamp;pressure;altitude;pressure_sealevel;temperature;humidity
75668;BME280;64266;48.798;44.756;2023-08-01T00:03:15;100941.34;;;22.96;46.88
75668;BME280;64266;48.798;44.756;2023-08-01T00:08:18;100940.63;;;22.91;46.97
75668;BME280;64266;48.798;44.756;2023-08-01T00:13:21;100952.31;;;22.86;46.68
75668;BME280;64266;48.798;44.756;2023-08-01T00:18:24;100951.47;;;22.72;46.77
75668;BME280;64266;48.798;44.756;2023-08-01T00:23:27;100913.09;;;22.51;47.56
75668;BME280;64266;48.798;44.756;2023-08-01T00:28:30;100936.53;;;22.56;47.71
75668;BME280;64266;48.798;44.756;2023-08-01T00:33:34;100960.50;;;22.62;48.68
75668;BME280;64266;48.798;44.756;2023-08-01T00:38:37;100949.59;;;22.49;48.24
75668;BME280;64266;48.798;44.756;2023-08-01T00:43:41;100961.78;;;22.46;48.88
75668;BME280;64266;48.798;44.756;2023-08-01T00:48:45;100958.38;;;22.41;49.16
75668;BME280;64266;48.798;44.756;2023-08-01T00:53:48;100941.84;;;22.24;49.61
75668;BME280;64266;48.798;44.756;2023-08-01T00:58:51;100935.19;;;22.16;49.27
75668;BME280;64266;48.798;44.756;2023-08-01T01:03:54;100961.25;;;22.26;49.00
75668;BME280;64266;48.798;44.756;2023-08-01T01:08:58;100956.66;;;22.26;48.56
75668;BME280;64266;48.798;44.756;2023-08-01T01:14:01;100957.59;;;22.17;49.09
75668;BME280;64266;48.798;44.756;2023-08-01T01:19:07;100953.94;;;22.07;48.58
75668;BME280;64266;48.798;44.756;2023-08-01T01:24:11;100942.25;;;21.88;48.92
75668;BME280;64266;48.798;44.756;2023-08-01T01:29:16;100957.31;;;21.94;48.50
75668;BME280;64266;48.798;44.756;2023-08-01T01:34:21;100978.81;;;22.04;49.30
75668;BME280;64266;48.798;44.756;2023-08-01T01:39:24;100971.56;;;22.00;48.97
75668;BME280;64266;48.798;44.756;2023-08-01T01:44:27;100971.88;;;21.98;49.04
75668;BME280;64266;48.798;44.756;2023-08-01T01:49:31;100952.53;;;21.86;49.14
75668;BME280;64266;48.798;44.756;2023-08-01T01:54:33;100983.00;;;21.92;48.70
75668;BME280;64266;48.798;44.756;2023-08-01T01:59:36;100977.59;;;21.92;48.59
75668;BME280;64266;48.798;44.756;2023-08-01T02:04:40;100979.22;;;21.93;48.71
75668;BME280;64266;48.798;44.756;2023-08-01T02:09:43;100964.13;;;21.87;48.91
75668;BME280;64266;48.798;44.756;2023-08-01T02:14:46;100991.25;;;22.05;49.10
75668;BME280;64266;48.798;44.756;2023-08-01T02:19:48;100980.44;;;22.05;48.72
75668;BME280;64266;48.798;44.756;2023-08-01T02:24:51;100969.16;;;21.98;48.36
75668;BME280;64266;48.798;44.756;2023-08-01T02:29:55;100977.09;;;22.13;48.34
75668;BME280;64266;48.798;44.756;2023-08-01T02:34:58;100960.94;;;22.08;48.00
75668;BME280;64266;48.798;44.756;2023-08-01T02:40:03;100984.03;;;22.20;48.14
75668;BME280;64266;48.798;44.756;2023-08-01T02:45:10;100956.31;;;22.09;47.91
75668;BME280;64266;48.798;44.756;2023-08-01T02:50:13;100958.19;;;22.13;47.53
75668;BME280;64266;48.798;44.756;2023-08-01T02:55:16;100958.84;;;22.24;47.83
75668;BME280;64266;48.798;44.756;2023-08-01T03:00:20;100963.84;;;22.36;47.47
75668;BME280;64266;48.798;44.756;2023-08-01T03:05:22;100973.41;;;22.47;47.52
75668;BME280;64266;48.798;44.756;2023-08-01T03:10:25;100973.28;;;22.57;47.07
75668;BME280;64266;48.798;44.756;2023-08-01T03:15:38;100962.78;;;22.93;47.25
75668;BME280;64266;48.798;44.756;2023-08-01T03:20:41;100977.97;;;23.86;43.69
75668;BME280;64266;48.798;44.756;2023-08-01T03:25:44;100982.25;;;24.82;42.65
75668;BME280;64266;48.798;44.756;2023-08-01T03:30:48;100984.94;;;25.71;40.71
75668;BME280;64266;48.798;44.756;2023-08-01T03:35:52;100993.19;;;26.36;39.23
75668;BME280;64266;48.798;44.756;2023-08-01T03:40:55;100962.84;;;26.94;38.41
75668;BME280;64266;48.798;44.756;2023-08-01T03:45:58;100991.78;;;27.88;36.41
75668;BME280;64266;48.798;44.756;2023-08-01T03:51:01;101007.22;;;28.51;36.00
75668;BME280;64266;48.798;44.756;2023-08-01T03:56:06;101021.22;;;28.91;34.50
75668;BME280;64266;48.798;44.756;2023-08-01T04:01:09;100980.72;;;29.46;33.70
75668;BME280;64266;48.798;44.756;2023-08-01T04:06:14;100991.97;;;30.26;32.99
75668;BME280;64266;48.798;44.756;2023-08-01T04:11:18;101020.66;;;30.69;31.92
75668;BME280;64266;48.798;44.756;2023-08-01T04:16:23;101011.28;;;31.37;31.29
75668;BME280;64266;48.798;44.756;2023-08-01T04:21:26;101027.38;;;31.82;29.22
75668;BME280;64266;48.798;44.756;2023-08-01T04:26:29;101014.09;;;31.53;30.15
75668;BME280;64266;48.798;44.756;2023-08-01T04:31:32;101013.13;;;31.77;28.88
75668;BME280;64266;48.798;44.756;2023-08-01T04:36:35;101020.88;;;32.37;29.54
75668;BME280;64266;48.798;44.756;2023-08-01T04:41:39;100963.78;;;32.81;28.62
75668;BME280;64266;48.798;44.756;2023-08-01T04:46:52;101013.72;;;33.63;26.71
75668;BME280;64266;48.798;44.756;2023-08-01T05:09:31;101011.06;;;32.71;27.41
75668;BME280;64266;48.798;44.756;2023-08-01T05:20:27;100947.88;;;34.00;25.87
75668;BME280;64266;48.798;44.756;2023-08-01T05:25:33;100984.25;;;33.45;27.43
75668;BME280;64266;48.798;44.756;2023-08-01T05:30:37;101009.34;;;32.63;28.79
75668;BME280;64266;48.798;44.756;2023-08-01T05:35:42;100987.22;;;31.90;29.42
75668;BME280;64266;48.798;44.756;2023-08-01T05:40:44;101010.28;;;32.55;28.54
75668;BME280;64266;48.798;44.756;2023-08-01T05:45:48;101006.13;;;32.61;28.71
75668;BME280;64266;48.798;44.756;2023-08-01T05:50:55;101001.97;;;32.16;29.43
75668;BME280;64266;48.798;44.756;2023-08-01T05:55:57;101003.25;;;32.38;30.19
75668;BME280;64266;48.798;44.756;2023-08-01T06:01:00;100999.03;;;32.25;29.92
75668;BME280;64266;48.798;44.756;2023-08-01T06:06:03;100981.94;;;32.32;30.02
75668;BME280;64266;48.798;44.756;2023-08-01T06:11:07;101002.84;;;32.36;30.16
75668;BME280;64266;48.798;44.756;2023-08-01T06:16:11;101008.69;;;33.92;26.62
75668;BME280;64266;48.798;44.756;2023-08-01T06:21:15;100966.00;;;34.87;23.91
75668;BME280;64266;48.798;44.756;2023-08-01T06:26:18;100995.31;;;35.79;24.11
75668;BME280;64266;48.798;44.756;2023-08-01T06:31:20;100978.44;;;36.46;23.19
75668;BME280;64266;48.798;44.756;2023-08-01T06:36:27;100991.25;;;36.79;23.08
75668;BME280;64266;48.798;44.756;2023-08-01T06:41:31;100990.28;;;37.54;22.43
75668;BME280;64266;48.798;44.756;2023-08-01T06:46:34;100991.88;;;37.94;20.67
75668;BME280;64266;48.798;44.756;2023-08-01T06:51:38;100985.13;;;38.16;19.74
75668;BME280;64266;48.798;44.756;2023-08-01T06:56:41;100978.75;;;38.30;19.05
75668;BME280;64266;48.798;44.756;2023-08-01T07:01:50;100990.47;;;38.87;19.11
75668;BME280;64266;48.798;44.756;2023-08-01T07:06:53;100994.69;;;39.09;19.63
75668;BME280;64266;48.798;44.756;2023-08-01T07:11:57;100996.31;;;39.07;18.81
75668;BME280;64266;48.798;44.756;2023-08-01T07:17:00;100988.00;;;38.99;19.16
75668;BME280;64266;48.798;44.756;2023-08-01T07:22:02;100983.25;;;39.03;19.62
75668;BME280;64266;48.798;44.756;2023-08-01T07:27:06;100978.72;;;39.31;19.08
75668;BME280;64266;48.798;44.756;2023-08-01T07:32:09;100990.88;;;39.47;18.62
75668;BME280;64266;48.798;44.756;2023-08-01T07:37:11;100973.63;;;39.22;18.60
75668;BME280;64266;48.798;44.756;2023-08-01T07:42:14;100978.38;;;39.22;17.79
75668;BME280;64266;48.798;44.756;2023-08-01T07:47:17;100986.06;;;38.96;18.35
75668;BME280;64266;48.798;44.756;2023-08-01T07:52:20;100965.19;;;38.64;18.11
75668;BME280;64266;48.798;44.756;2023-08-01T07:57:22;100955.06;;;38.11;18.46
75668;BME280;64266;48.798;44.756;2023-08-01T08:02:29;100952.28;;;38.01;19.05
75668;BME280;64266;48.798;44.756;2023-08-01T08:07:32;100958.63;;;37.76;19.01
75668;BME280;64266;48.798;44.756;2023-08-01T08:12:35;100954.66;;;37.31;18.28
75668;BME280;64266;48.798;44.756;2023-08-01T08:17:43;100935.97;;;36.82;19.73
75668;BME280;64266;48.798;44.756;2023-08-01T08:22:47;100954.38;;;36.50;20.27
75668;BME280;64266;48.798;44.756;2023-08-01T08:27:52;100947.53;;;36.23;21.20
75668;BME280;64266;48.798;44.756;2023-08-01T08:32:57;100931.63;;;36.06;20.27
75668;BME280;64266;48.798;44.756;2023-08-01T08:38:03;100945.22;;;35.74;21.43
75668;BME280;64266;48.798;44.756;2023-08-01T08:43:11;100933.88;;;35.42;21.05
75668;BME280;64266;48.798;44.756;2023-08-01T08:48:18;100925.97;;;35.00;21.51
75668;BME280;64266;48.798;44.756;2023-08-01T08:53:48;100930.38;;;34.71;21.64
75668;BME280;64266;48.798;44.756;2023-08-01T08:58:59;100892.88;;;34.33;22.41
75668;BME280;64266;48.798;44.756;2023-08-01T09:04:16;100936.03;;;34.85;21.45
75668;BME280;64266;48.798;44.756;2023-08-01T09:09:31;100904.41;;;34.72;21.03
75668;BME280;64266;48.798;44.756;2023-08-01T09:14:36;100923.25;;;34.67;20.83
75668;BME280;64266;48.798;44.756;2023-08-01T09:19:43;100918.31;;;34.53;22.17
75668;BME280;64266;48.798;44.756;2023-08-01T09:24:54;100911.41;;;34.37;22.54
75668;BME280;64266;48.798;44.756;2023-08-01T09:30:05;100918.22;;;34.46;21.75
75668;BME280;64266;48.798;44.756;2023-08-01T09:35:23;100909.72;;;34.58;21.31
75668;BME280;64266;48.798;44.756;2023-08-01T09:40:25;100887.63;;;34.51;21.40
75668;BME280;64266;48.798;44.756;2023-08-01T09:45:52;100897.84;;;34.51;21.29
75668;BME280;64266;48.798;44.756;2023-08-01T09:51:17;100892.41;;;34.58;21.59
75668;BME280;64266;48.798;44.756;2023-08-01T09:56:28;100897.13;;;34.57;21.45
75668;BME280;64266;48.798;44.756;2023-08-01T10:01:40;100845.72;;;34.35;21.64
75668;BME280;64266;48.798;44.756;2023-08-01T10:06:46;100887.94;;;34.76;21.51
75668;BME280;64266;48.798;44.756;2023-08-01T10:11:50;100869.75;;;34.71;21.29
75668;BME280;64266;48.798;44.756;2023-08-01T10:17:14;100876.09;;;34.75;21.02
75668;BME280;64266;48.798;44.756;2023-08-01T10:22:51;100879.31;;;34.81;21.64
75668;BME280;64266;48.798;44.756;2023-08-01T10:28:35;100872.91;;;34.73;21.67
75668;BME280;64266;48.798;44.756;2023-08-01T10:33:46;100857.72;;;34.53;22.12
75668;BME280;64266;48.798;44.756;2023-08-01T10:38:56;100852.91;;;34.47;21.53
75668;BME280;64266;48.798;44.756;2023-08-01T10:49:14;100841.16;;;34.50;21.92
75668;BME280;64266;48.798;44.756;2023-08-01T10:54:22;100826.16;;;34.47;22.05
75668;BME280;64266;48.798;44.756;2023-08-01T10:59:25;100836.47;;;34.54;21.91
75668;BME280;64266;48.798;44.756;2023-08-01T11:04:29;100845.41;;;34.44;22.55
75668;BME280;64266;48.798;44.756;2023-08-01T11:09:34;100839.53;;;34.45;21.42
75668;BME280;64266;48.798;44.756;2023-08-01T11:14:38;100839.16;;;34.47;22.20
75668;BME280;64266;48.798;44.756;2023-08-01T11:19:41;100830.63;;;34.25;22.02
75668;BME280;64266;48.798;44.756;2023-08-01T11:24:50;100823.63;;;34.02;22.32
75668;BME280;64266;48.798;44.756;2023-08-01T11:29:54;100826.75;;;34.00;22.21
75668;BME280;64266;48.798;44.756;2023-08-01T11:34:58;100819.06;;;34.13;22.72
75668;BME280;64266;48.798;44.756;2023-08-01T11:40:03;100821.41;;;34.11;22.24
75668;BME280;64266;48.798;44.756;2023-08-01T11:45:26;100810.06;;;33.86;22.20
75668;BME280;64266;48.798;44.756;2023-08-01T11:50:31;100807.16;;;33.75;22.66
75668;BME280;64266;48.798;44.756;2023-08-01T11:55:35;100804.63;;;33.63;23.27
75668;BME280;64266;48.798;44.756;2023-08-01T12:00:38;100805.09;;;33.69;23.57
75668;BME280;64266;48.798;44.756;2023-08-01T12:05:41;100786.69;;;33.73;22.57
75668;BME280;64266;48.798;44.756;2023-08-01T12:10:45;100792.34;;;33.84;22.70
75668;BME280;64266;48.798;44.756;2023-08-01T12:15:49;100784.84;;;33.84;22.24
75668;BME280;64266;48.798;44.756;2023-08-01T12:20:53;100759.88;;;33.66;22.42
75668;BME280;64266;48.798;44.756;2023-08-01T12:25:56;100781.88;;;33.66;22.31
75668;BME280;64266;48.798;44.756;2023-08-01T12:30:59;100779.22;;;33.47;22.84
75668;BME280;64266;48.798;44.756;2023-08-01T12:36:02;100792.66;;;33.52;23.56
75668;BME280;64266;48.798;44.756;2023-08-01T12:41:06;100775.19;;;33.41;22.85
75668;BME280;64266;48.798;44.756;2023-08-01T12:46:10;100774.38;;;33.37;23.93
75668;BME280;64266;48.798;44.756;2023-08-01T12:51:15;100786.19;;;33.41;23.86
75668;BME280;64266;48.798;44.756;2023-08-01T12:56:18;100755.09;;;33.11;23.26
75668;BME280;64266;48.798;44.756;2023-08-01T13:01:20;100774.88;;;33.20;23.97
75668;BME280;64266;48.798;44.756;2023-08-01T13:06:23;100789.47;;;33.24;24.30
75668;BME280;64266;48.798;44.756;2023-08-01T13:11:29;100779.63;;;33.23;24.13
75668;BME280;64266;48.798;44.756;2023-08-01T13:16:32;100767.03;;;33.18;23.48
75668;BME280;64266;48.798;44.756;2023-08-01T13:21:37;100774.25;;;33.07;23.63
75668;BME280;64266;48.798;44.756;2023-08-01T13:26:46;100766.22;;;32.95;24.62
75668;BME280;64266;48.798;44.756;2023-08-01T13:31:50;100722.72;;;32.55;25.74
75668;BME280;64266;48.798;44.756;2023-08-01T13:36:54;100758.28;;;32.67;24.46
75668;BME280;64266;48.798;44.756;2023-08-01T13:41:57;100766.09;;;32.65;25.36
75668;BME280;64266;48.798;44.756;2023-08-01T13:47:00;100753.84;;;32.59;24.17
75668;BME280;64266;48.798;44.756;2023-08-01T13:52:06;100749.63;;;32.46;24.48
75668;BME280;64266;48.798;44.756;2023-08-01T13:57:10;100750.75;;;32.42;26.39
75668;BME280;64266;48.798;44.756;2023-08-01T14:02:14;100746.22;;;32.30;25.37
75668;BME280;64266;48.798;44.756;2023-08-01T14:07:17;100749.81;;;32.34;25.53
75668;BME280;64266;48.798;44.756;2023-08-01T14:12:19;100751.25;;;32.28;25.14
75668;BME280;64266;48.798;44.756;2023-08-01T14:17:23;100744.72;;;32.13;25.40
75668;BME280;64266;48.798;44.756;2023-08-01T14:22:26;100750.19;;;32.13;24.58
75668;BME280;64266;48.798;44.756;2023-08-01T14:27:28;100735.97;;;32.08;24.12
75668;BME280;64266;48.798;44.756;2023-08-01T14:32:31;100732.63;;;31.99;25.08
75668;BME280;64266;48.798;44.756;2023-08-01T14:37:34;100739.13;;;31.91;25.60
75668;BME280;64266;48.798;44.756;2023-08-01T14:42:37;100696.81;;;31.53;25.16
75668;BME280;64266;48.798;44.756;2023-08-01T14:47:43;100734.78;;;31.71;26.78
75668;BME280;64266;48.798;44.756;2023-08-01T14:52:46;100733.75;;;31.59;26.86
75668;BME280;64266;48.798;44.756;2023-08-01T14:57:49;100744.28;;;31.57;27.41
75668;BME280;64266;48.798;44.756;2023-08-01T15:02:51;100730.28;;;31.62;26.34
75668;BME280;64266;48.798;44.756;2023-08-01T15:07:54;100719.91;;;31.52;26.67
75668;BME280;64266;48.798;44.756;2023-08-01T15:12:57;100737.94;;;31.53;26.49
75668;BME280;64266;48.798;44.756;2023-08-01T15:18:00;100735.75;;;31.43;27.05
75668;BME280;64266;48.798;44.756;2023-08-01T15:23:03;100731.69;;;31.37;26.33
75668;BME280;64266;48.798;44.756;2023-08-01T15:28:06;100723.13;;;31.23;26.12
75668;BME280;64266;48.798;44.756;2023-08-01T15:33:09;100722.81;;;31.09;27.02
75668;BME280;64266;48.798;44.756;2023-08-01T15:38:11;100722.91;;;30.97;27.43
75668;BME280;64266;48.798;44.756;2023-08-01T15:43:14;100724.41;;;30.79;27.95
75668;BME280;64266;48.798;44.756;2023-08-01T15:48:18;100739.66;;;30.80;28.02
75668;BME280;64266;48.798;44.756;2023-08-01T15:53:20;100743.19;;;30.64;28.32
75668;BME280;64266;48.798;44.756;2023-08-01T15:58:24;100674.25;;;30.16;27.46
75668;BME280;64266;48.798;44.756;2023-08-01T16:03:27;100736.28;;;30.55;27.85
75668;BME280;64266;48.798;44.756;2023-08-01T16:08:30;100744.69;;;30.46;28.25
75668;BME280;64266;48.798;44.756;2023-08-01T16:13:33;100748.16;;;30.31;27.90
75668;BME280;64266;48.798;44.756;2023-08-01T16:18:36;100758.25;;;30.15;28.71
75668;BME280;64266;48.798;44.756;2023-08-01T16:23:41;100758.81;;;29.93;29.56
75668;BME280;64266;48.798;44.756;2023-08-01T16:28:44;100747.34;;;29.63;30.58
75668;BME280;64266;48.798;44.756;2023-08-01T16:33:46;100768.53;;;29.54;31.09
75668;BME280;64266;48.798;44.756;2023-08-01T16:38:50;100767.56;;;29.34;32.03
75668;BME280;64266;48.798;44.756;2023-08-01T16:43:54;100779.84;;;29.16;32.55
75668;BME280;64266;48.798;44.756;2023-08-01T16:48:57;100761.03;;;28.90;33.35
75668;BME280;64266;48.798;44.756;2023-08-01T16:54:11;100788.44;;;28.82;33.96
75668;BME280;64266;48.798;44.756;2023-08-01T16:59:17;100776.97;;;28.56;34.98
75668;BME280;64266;48.798;44.756;2023-08-01T17:04:20;100788.09;;;28.50;35.01
75668;BME280;64266;48.798;44.756;2023-08-01T17:09:23;100775.50;;;28.25;35.71
75668;BME280;64266;48.798;44.756;2023-08-01T17:14:30;100787.97;;;28.14;35.85
75668;BME280;64266;48.798;44.756;2023-08-01T17:19:33;100809.50;;;28.07;36.75
75668;BME280;64266;48.798;44.756;2023-08-01T17:24:37;100792.53;;;27.81;38.03
75668;BME280;64266;48.798;44.756;2023-08-01T17:29:40;100773.25;;;27.65;37.54
75668;BME280;64266;48.798;44.756;2023-08-01T17:34:43;100792.97;;;27.62;37.78
75668;BME280;64266;48.798;44.756;2023-08-01T17:39:46;100789.81;;;27.52;37.77
75668;BME280;64266;48.798;44.756;2023-08-01T17:44:48;100788.91;;;27.39;38.53
75668;BME280;64266;48.798;44.756;2023-08-01T17:49:51;100808.75;;;27.48;37.98
75668;BME280;64266;48.798;44.756;2023-08-01T17:54:53;100778.56;;;27.24;38.31
75668;BME280;64266;48.798;44.756;2023-08-01T17:59:56;100804.44;;;27.38;37.60
75668;BME280;64266;48.798;44.756;2023-08-01T18:04:58;100805.59;;;27.29;38.15
75668;BME280;64266;48.798;44.756;2023-08-01T18:10:01;100814.63;;;27.21;37.90
75668;BME280;64266;48.798;44.756;2023-08-01T18:15:05;100816.72;;;27.15;37.16
75668;BME280;64266;48.798;44.756;2023-08-01T18:20:08;100821.38;;;27.15;37.20
75668;BME280;64266;48.798;44.756;2023-08-01T18:25:12;100821.22;;;27.11;37.21
75668;BME280;64266;48.798;44.756;2023-08-01T18:30:14;100826.88;;;26.98;38.23
75668;BME280;64266;48.798;44.756;2023-08-01T18:35:17;100827.84;;;26.93;37.90
75668;BME280;64266;48.798;44.756;2023-08-01T18:40:19;100828.34;;;26.86;38.52
75668;BME280;64266;48.798;44.756;2023-08-01T18:45:22;100815.03;;;26.76;38.08
75668;BME280;64266;48.798;44.756;2023-08-01T18:50:24;100801.47;;;26.68;39.07
75668;BME280;64266;48.798;44.756;2023-08-01T18:55:27;100811.41;;;26.64;39.66
75668;BME280;64266;48.798;44.756;2023-08-01T19:00:31;100803.88;;;26.52;39.56
75668;BME280;64266;48.798;44.756;2023-08-01T19:05:33;100811.59;;;26.50;39.73
75668;BME280;64266;48.798;44.756;2023-08-01T19:10:37;100822.47;;;26.50;40.51
75668;BME280;64266;48.798;44.756;2023-08-01T19:15:40;100825.34;;;26.54;38.37
75668;BME280;64266;48.798;44.756;2023-08-01T19:20:43;100820.38;;;26.56;38.93
75668;BME280;64266;48.798;44.756;2023-08-01T19:25:46;100812.03;;;26.52;39.67
75668;BME280;64266;48.798;44.756;2023-08-01T19:30:49;100826.13;;;26.63;36.41
75668;BME280;64266;48.798;44.756;2023-08-01T19:35:52;100836.84;;;26.85;35.63
75668;BME280;64266;48.798;44.756;2023-08-01T19:40:59;100839.97;;;27.04;35.59
75668;BME280;64266;48.798;44.756;2023-08-01T19:46:12;100837.53;;;27.20;35.21
75668;BME280;64266;48.798;44.756;2023-08-01T19:51:17;100845.16;;;27.43;34.17
75668;BME280;64266;48.798;44.756;2023-08-01T19:56:19;100833.09;;;27.53;33.99
75668;BME280;64266;48.798;44.756;2023-08-01T20:01:22;100837.09;;;27.56;34.18
75668;BME280;64266;48.798;44.756;2023-08-01T20:06:24;100823.63;;;27.51;34.42
75668;BME280;64266;48.798;44.756;2023-08-01T20:11:27;100807.66;;;27.40;34.50
75668;BME280;64266;48.798;44.756;2023-08-01T20:16:29;100842.69;;;27.59;34.09
75668;BME280;64266;48.798;44.756;2023-08-01T20:21:32;100820.28;;;27.45;34.33
75668;BME280;64266;48.798;44.756;2023-08-01T20:26:35;100826.88;;;27.44;34.46
75668;BME280;64266;48.798;44.756;2023-08-01T20:31:37;100838.84;;;27.52;34.26
75668;BME280;64266;48.798;44.756;2023-08-01T20:36:41;100845.91;;;27.53;34.82
75668;BME280;64266;48.798;44.756;2023-08-01T20:41:44;100795.75;;;27.16;34.74
75668;BME280;64266;48.798;44.756;2023-08-01T20:46:46;100831.22;;;27.36;34.62
75668;BME280;64266;48.798;44.756;2023-08-01T20:51:49;100827.25;;;27.25;34.73
75668;BME280;64266;48.798;44.756;2023-08-01T20:56:53;100835.44;;;27.25;34.59
75668;BME280;64266;48.798;44.756;2023-08-01T21:01:56;100824.44;;;27.05;34.01
75668;BME280;64266;48.798;44.756;2023-08-01T21:07:02;100812.63;;;26.92;33.86
75668;BME280;64266;48.798;44.756;2023-08-01T21:12:06;100837.91;;;27.01;32.90
75668;BME280;64266;48.798;44.756;2023-08-01T21:17:08;100832.81;;;26.91;32.96
75668;BME280;64266;48.798;44.756;2023-08-01T21:22:12;100846.91;;;26.93;32.92
75668;BME280;64266;48.798;44.756;2023-08-01T21:27:15;100844.22;;;26.84;32.72
75668;BME280;64266;48.798;44.756;2023-08-01T21:32:18;100854.28;;;26.84;32.89
75668;BME280;64266;48.798;44.756;2023-08-01T21:37:21;100843.25;;;26.72;32.79
75668;BME280;64266;48.798;44.756;2023-08-01T21:42:24;100835.59;;;26.57;33.18
75668;BME280;64266;48.798;44.756;2023-08-01T21:47:27;100844.22;;;26.42;33.65
75668;BME280;64266;48.798;44.756;2023-08-01T21:52:30;100838.13;;;26.27;33.77
75668;BME280;64266;48.798;44.756;2023-08-01T21:57:33;100857.19;;;26.27;34.05
75668;BME280;64266;48.798;44.756;2023-08-01T22:02:36;100855.72;;;26.21;33.64
75668;BME280;64266;48.798;44.756;2023-08-01T22:07:38;100848.03;;;26.06;33.90
75668;BME280;64266;48.798;44.756;2023-08-01T22:12:41;100847.22;;;25.97;34.37
75668;BME280;64266;48.798;44.756;2023-08-01T22:17:48;100846.41;;;25.88;34.48
75668;BME280;64266;48.798;44.756;2023-08-01T22:22:54;100857.72;;;25.81;34.65
75668;BME280;64266;48.798;44.756;2023-08-01T22:27:57;100841.88;;;25.66;34.90
75668;BME280;64266;48.798;44.756;2023-08-01T22:32:59;100844.75;;;25.61;35.34
75668;BME280;64266;48.798;44.756;2023-08-01T22:38:05;100829.31;;;25.48;35.61
75668;BME280;64266;48.798;44.756;2023-08-01T22:43:07;100814.28;;;25.33;36.17
75668;BME280;64266;48.798;44.756;2023-08-01T22:48:11;100833.44;;;25.37;36.24
75668;BME280;64266;48.798;44.756;2023-08-01T22:53:14;100831.47;;;25.20;36.24
75668;BME280;64266;48.798;44.756;2023-08-01T22:58:18;100844.59;;;25.27;36.45
75668;BME280;64266;48.798;44.756;2023-08-01T23:03:22;100805.34;;;25.02;36.93
75668;BME280;64266;48.798;44.756;2023-08-01T23:08:25;100826.81;;;25.12;36.88
75668;BME280;64266;48.798;44.756;2023-08-01T23:13:28;100837.84;;;25.16;37.05
75668;BME280;64266;48.798;44.756;2023-08-01T23:18:31;100832.22;;;25.12;37.30
75668;BME280;64266;48.798;44.756;2023-08-01T23:23:33;100820.75;;;25.15;37.25
75668;BME280;64266;48.798;44.756;2023-08-01T23:28:36;100845.22;;;25.24;37.30
75668;BME280;64266;48.798;44.756;2023-08-01T23:33:39;100827.28;;;25.14;37.79
75668;BME280;64266;48.798;44.756;2023-08-01T23:38:42;100850.66;;;25.32;37.96
75668;BME280;64266;48.798;44.756;2023-08-01T23:43:46;100853.72;;;25.31;37.87
75668;BME280;64266;48.798;44.756;2023-08-01T23:48:49;100842.69;;;25.27;38.00
75668;BME280;64266;48.798;44.756;2023-08-01T23:53:52;100855.97;;;25.38;38.09
75668;BME280;64266;48.798;44.756;2023-08-01T23:58:55;100867.94;;;25.37;38.44
